SAS51G ESGG-EKCH
Flight info
| Callsign | SAS51G |
|---|---|
| Flight time | 0h 44m |
| Altitude | 15000 |
| Route | TOPLA L996 ERNOV |
| Aircraft | A20N/M-SDE2E3FGHIRWXY/LB1 |
Departure
| Time | 2026-05-06 19:08 |
|---|---|
| Airport | Göteborg Landvetter Airport (ESGG) |
Arrival
| Time | 2026-05-06 19:53 |
|---|---|
| Airport | Copenhagen Kastrup Airport (EKCH) |
| Time | Latitude | Longitude | Altitude | Speed | Heading |
|---|---|---|---|---|---|
| 2026-05-06 18:49 | 57.67453 | 12.29679 | 533 ft | 0 kts | 161° |
| 2026-05-06 19:02 | 57.67448 | 12.29681 | 533 ft | 3 kts | 167° |
| 2026-05-06 19:02 | 57.67410 | 12.29692 | 532 ft | 7 kts | 193° |
| 2026-05-06 19:02 | 57.67367 | 12.29694 | 532 ft | 3 kts | 203° |
| 2026-05-06 19:03 | 57.67368 | 12.29668 | 532 ft | 3 kts | 277° |
| 2026-05-06 19:03 | 57.67380 | 12.29596 | 532 ft | 8 kts | 292° |
| 2026-05-06 19:03 | 57.67411 | 12.29471 | 532 ft | 13 kts | 295° |
| 2026-05-06 19:03 | 57.67448 | 12.29318 | 532 ft | 9 kts | 290° |
| 2026-05-06 19:04 | 57.67453 | 12.29172 | 531 ft | 15 kts | 259° |
| 2026-05-06 19:04 | 57.67380 | 12.28994 | 530 ft | 18 kts | 184° |
| 2026-05-06 19:04 | 57.67297 | 12.28898 | 530 ft | 13 kts | 209° |
| 2026-05-06 19:04 | 57.67283 | 12.28887 | 530 ft | 0 kts | 203° |
| 2026-05-06 19:08 | 57.67102 | 12.28726 | 530 ft | 77 kts | 205° |
| 2026-05-06 19:08 | 57.66332 | 12.28024 | 525 ft | 165 kts | 206° |
| 2026-05-06 19:08 | 57.65240 | 12.27108 | 1419 ft | 171 kts | 205° |
| 2026-05-06 19:09 | 57.64171 | 12.26162 | 2516 ft | 171 kts | 206° |
| 2026-05-06 19:09 | 57.63048 | 12.25116 | 3324 ft | 190 kts | 207° |
| 2026-05-06 19:09 | 57.61807 | 12.23932 | 4028 ft | 213 kts | 207° |
| 2026-05-06 19:09 | 57.60408 | 12.22588 | 4724 ft | 242 kts | 207° |
| 2026-05-06 19:10 | 57.58789 | 12.21171 | 5041 ft | 265 kts | 197° |
| 2026-05-06 19:10 | 57.56927 | 12.21041 | 5641 ft | 275 kts | 166° |
| 2026-05-06 19:10 | 57.55234 | 12.22604 | 6969 ft | 273 kts | 146° |
| 2026-05-06 19:10 | 57.53523 | 12.24174 | 8158 ft | 278 kts | 166° |
| 2026-05-06 19:11 | 57.51619 | 12.24644 | 9299 ft | 282 kts | 177° |
| 2026-05-06 19:11 | 57.49634 | 12.24808 | 10403 ft | 290 kts | 178° |
| 2026-05-06 19:11 | 57.47541 | 12.25044 | 11045 ft | 314 kts | 175° |
| 2026-05-06 19:11 | 57.45283 | 12.25464 | 11585 ft | 337 kts | 173° |
| 2026-05-06 19:12 | 57.42928 | 12.26030 | 12462 ft | 345 kts | 172° |
| 2026-05-06 19:12 | 57.40537 | 12.26662 | 13467 ft | 350 kts | 172° |
| 2026-05-06 19:12 | 57.38107 | 12.27323 | 14334 ft | 356 kts | 172° |
| 2026-05-06 19:12 | 57.35645 | 12.27995 | 14753 ft | 359 kts | 172° |
| 2026-05-06 19:13 | 57.33170 | 12.28666 | 14939 ft | 360 kts | 172° |
| 2026-05-06 19:13 | 57.30687 | 12.29335 | 14999 ft | 360 kts | 172° |
| 2026-05-06 19:13 | 57.28207 | 12.30001 | 15000 ft | 360 kts | 172° |
| 2026-05-06 19:13 | 57.25726 | 12.30664 | 15001 ft | 360 kts | 172° |
| 2026-05-06 19:14 | 57.23246 | 12.31326 | 15003 ft | 360 kts | 172° |
| 2026-05-06 19:14 | 57.20761 | 12.31989 | 15000 ft | 360 kts | 172° |
| 2026-05-06 19:14 | 57.18313 | 12.32641 | 14999 ft | 360 kts | 172° |
| 2026-05-06 19:14 | 57.15836 | 12.33299 | 14998 ft | 360 kts | 172° |
| 2026-05-06 19:15 | 57.13349 | 12.33960 | 15002 ft | 360 kts | 172° |
| 2026-05-06 19:15 | 57.10867 | 12.34598 | 15000 ft | 360 kts | 172° |
| 2026-05-06 19:15 | 57.08385 | 12.35211 | 14998 ft | 360 kts | 173° |
| 2026-05-06 19:15 | 57.05901 | 12.35820 | 15001 ft | 360 kts | 173° |
| 2026-05-06 19:16 | 57.03421 | 12.36430 | 14999 ft | 360 kts | 173° |
| 2026-05-06 19:16 | 57.00939 | 12.37041 | 14998 ft | 360 kts | 173° |
| 2026-05-06 19:16 | 56.98457 | 12.37654 | 15001 ft | 360 kts | 173° |
| 2026-05-06 19:16 | 56.95969 | 12.38269 | 15000 ft | 360 kts | 173° |
| 2026-05-06 19:17 | 56.93489 | 12.38881 | 15000 ft | 360 kts | 173° |
| 2026-05-06 19:17 | 56.91005 | 12.39494 | 15000 ft | 360 kts | 173° |
| 2026-05-06 19:17 | 56.88526 | 12.40104 | 14998 ft | 357 kts | 173° |
| 2026-05-06 19:17 | 56.86126 | 12.40695 | 15000 ft | 338 kts | 173° |
| 2026-05-06 19:18 | 56.83859 | 12.41253 | 15002 ft | 319 kts | 173° |
| 2026-05-06 19:18 | 56.81714 | 12.41779 | 14997 ft | 301 kts | 173° |
| 2026-05-06 19:18 | 56.79694 | 12.42275 | 14992 ft | 285 kts | 173° |
| 2026-05-06 19:18 | 56.77798 | 12.42739 | 14898 ft | 272 kts | 173° |
| 2026-05-06 19:19 | 56.75963 | 12.43187 | 14801 ft | 260 kts | 173° |
| 2026-05-06 19:19 | 56.74209 | 12.43616 | 14706 ft | 248 kts | 173° |
| 2026-05-06 19:19 | 56.72535 | 12.44024 | 14578 ft | 238 kts | 173° |
| 2026-05-06 19:19 | 56.70899 | 12.44423 | 14285 ft | 236 kts | 173° |
| 2026-05-06 19:20 | 56.69281 | 12.44817 | 14053 ft | 232 kts | 173° |
| 2026-05-06 19:20 | 56.67661 | 12.45211 | 13987 ft | 237 kts | 173° |
| 2026-05-06 19:20 | 56.66036 | 12.45606 | 13895 ft | 234 kts | 173° |
| 2026-05-06 19:20 | 56.64425 | 12.45997 | 13625 ft | 233 kts | 173° |
| 2026-05-06 19:21 | 56.62814 | 12.46388 | 13310 ft | 233 kts | 173° |
| 2026-05-06 19:21 | 56.61210 | 12.46777 | 13003 ft | 232 kts | 173° |
| 2026-05-06 19:21 | 56.59610 | 12.47165 | 12699 ft | 231 kts | 173° |
| 2026-05-06 19:21 | 56.58021 | 12.47550 | 12396 ft | 230 kts | 173° |
| 2026-05-06 19:22 | 56.56438 | 12.47933 | 12106 ft | 229 kts | 173° |
| 2026-05-06 19:22 | 56.54879 | 12.48310 | 11815 ft | 228 kts | 173° |
| 2026-05-06 19:22 | 56.53310 | 12.48689 | 11522 ft | 227 kts | 173° |
| 2026-05-06 19:22 | 56.51748 | 12.49066 | 11234 ft | 226 kts | 173° |
| 2026-05-06 19:23 | 56.50190 | 12.49442 | 10948 ft | 225 kts | 173° |
| 2026-05-06 19:23 | 56.48645 | 12.49815 | 10660 ft | 224 kts | 173° |
| 2026-05-06 19:23 | 56.47098 | 12.50187 | 10383 ft | 223 kts | 173° |
| 2026-05-06 19:23 | 56.45563 | 12.50556 | 10110 ft | 222 kts | 173° |
| 2026-05-06 19:24 | 56.44032 | 12.50924 | 9830 ft | 221 kts | 173° |
| 2026-05-06 19:24 | 56.42510 | 12.51290 | 9556 ft | 220 kts | 173° |
| 2026-05-06 19:24 | 56.40992 | 12.51654 | 9284 ft | 219 kts | 173° |
| 2026-05-06 19:24 | 56.39486 | 12.52014 | 9058 ft | 216 kts | 173° |
| 2026-05-06 19:25 | 56.37988 | 12.52371 | 8999 ft | 223 kts | 173° |
| 2026-05-06 19:25 | 56.36413 | 12.52745 | 9000 ft | 230 kts | 173° |
| 2026-05-06 19:25 | 56.34831 | 12.53122 | 9000 ft | 229 kts | 173° |
| 2026-05-06 19:25 | 56.33252 | 12.53498 | 9000 ft | 229 kts | 173° |
| 2026-05-06 19:26 | 56.31695 | 12.53869 | 9000 ft | 229 kts | 173° |
| 2026-05-06 19:26 | 56.30114 | 12.54245 | 9000 ft | 229 kts | 173° |
| 2026-05-06 19:26 | 56.28531 | 12.54621 | 9000 ft | 229 kts | 173° |
| 2026-05-06 19:26 | 56.26947 | 12.54997 | 9000 ft | 229 kts | 173° |
| 2026-05-06 19:27 | 56.25365 | 12.55372 | 9000 ft | 229 kts | 173° |
| 2026-05-06 19:27 | 56.23783 | 12.55747 | 9000 ft | 229 kts | 173° |
| 2026-05-06 19:27 | 56.22204 | 12.56120 | 9000 ft | 229 kts | 173° |
| 2026-05-06 19:27 | 56.20621 | 12.56495 | 9000 ft | 229 kts | 173° |
| 2026-05-06 19:28 | 56.19035 | 12.56675 | 8997 ft | 228 kts | 190° |
| 2026-05-06 19:28 | 56.17606 | 12.55525 | 9003 ft | 228 kts | 221° |
| 2026-05-06 19:28 | 56.16455 | 12.53568 | 8999 ft | 228 kts | 225° |
| 2026-05-06 19:28 | 56.15343 | 12.51603 | 9000 ft | 227 kts | 225° |
| 2026-05-06 19:29 | 56.14177 | 12.49543 | 9002 ft | 248 kts | 225° |
| 2026-05-06 19:29 | 56.12939 | 12.47355 | 8999 ft | 250 kts | 225° |
| 2026-05-06 19:29 | 56.11704 | 12.45171 | 9000 ft | 249 kts | 225° |
| 2026-05-06 19:29 | 56.10469 | 12.42990 | 9000 ft | 250 kts | 225° |
| 2026-05-06 19:30 | 56.09231 | 12.40802 | 9000 ft | 250 kts | 225° |
| 2026-05-06 19:30 | 56.07991 | 12.38613 | 9000 ft | 250 kts | 225° |
| 2026-05-06 19:30 | 56.06750 | 12.36424 | 9000 ft | 250 kts | 225° |
| 2026-05-06 19:30 | 56.05513 | 12.34243 | 9000 ft | 250 kts | 225° |
| 2026-05-06 19:31 | 56.04276 | 12.32062 | 9000 ft | 250 kts | 225° |
| 2026-05-06 19:31 | 56.03039 | 12.29881 | 9000 ft | 250 kts | 225° |
| 2026-05-06 19:31 | 56.00563 | 12.25522 | 9000 ft | 250 kts | 225° |
| 2026-05-06 19:32 | 55.99324 | 12.23342 | 9000 ft | 250 kts | 225° |
| 2026-05-06 19:32 | 55.98087 | 12.21166 | 9000 ft | 250 kts | 225° |
| 2026-05-06 19:32 | 55.96863 | 12.19015 | 9000 ft | 250 kts | 225° |
| 2026-05-06 19:32 | 55.95625 | 12.16841 | 9000 ft | 250 kts | 225° |
| 2026-05-06 19:33 | 55.94383 | 12.14661 | 9000 ft | 250 kts | 225° |
| 2026-05-06 19:33 | 55.93145 | 12.12489 | 9000 ft | 250 kts | 225° |
| 2026-05-06 19:33 | 55.91906 | 12.10315 | 9000 ft | 250 kts | 225° |
| 2026-05-06 19:33 | 55.90667 | 12.08144 | 9000 ft | 250 kts | 225° |
| 2026-05-06 19:34 | 55.89427 | 12.05971 | 9000 ft | 250 kts | 225° |
| 2026-05-06 19:34 | 55.88187 | 12.03801 | 9000 ft | 250 kts | 225° |
| 2026-05-06 19:34 | 55.86947 | 12.01632 | 9000 ft | 250 kts | 225° |
| 2026-05-06 19:34 | 55.85708 | 11.99465 | 9000 ft | 250 kts | 225° |
| 2026-05-06 19:35 | 55.84469 | 11.97298 | 9000 ft | 250 kts | 225° |
| 2026-05-06 19:35 | 55.83229 | 11.95132 | 9000 ft | 250 kts | 225° |
| 2026-05-06 19:35 | 55.81991 | 11.92972 | 9000 ft | 250 kts | 225° |
| 2026-05-06 19:35 | 55.80751 | 11.90808 | 9000 ft | 250 kts | 225° |
| 2026-05-06 19:36 | 55.79508 | 11.88641 | 9000 ft | 250 kts | 225° |
| 2026-05-06 19:36 | 55.78267 | 11.86478 | 9001 ft | 250 kts | 225° |
| 2026-05-06 19:36 | 55.77028 | 11.84321 | 9000 ft | 250 kts | 225° |
| 2026-05-06 19:36 | 55.75785 | 11.82158 | 9000 ft | 250 kts | 225° |
| 2026-05-06 19:37 | 55.74544 | 11.80008 | 8999 ft | 250 kts | 222° |
| 2026-05-06 19:37 | 55.73039 | 11.78521 | 9001 ft | 250 kts | 193° |
| 2026-05-06 19:37 | 55.71334 | 11.78535 | 9001 ft | 252 kts | 164° |
| 2026-05-06 19:37 | 55.70263 | 11.79415 | 9001 ft | 252 kts | 144° |
| 2026-05-06 19:38 | 55.68761 | 11.82543 | 8996 ft | 253 kts | 124° |
| 2026-05-06 19:38 | 55.67761 | 11.85107 | 9000 ft | 253 kts | 124° |
| 2026-05-06 19:38 | 55.66763 | 11.87668 | 9000 ft | 253 kts | 124° |
| 2026-05-06 19:38 | 55.65763 | 11.90233 | 9000 ft | 253 kts | 124° |
| 2026-05-06 19:39 | 55.64763 | 11.92796 | 9000 ft | 253 kts | 124° |
| 2026-05-06 19:39 | 55.63766 | 11.95352 | 8981 ft | 252 kts | 124° |
| 2026-05-06 19:39 | 55.62773 | 11.97896 | 8768 ft | 250 kts | 124° |
| 2026-05-06 19:39 | 55.61785 | 12.00427 | 8446 ft | 250 kts | 124° |
| 2026-05-06 19:40 | 55.61132 | 12.02102 | 8223 ft | 250 kts | 124° |
| 2026-05-06 19:40 | 55.60155 | 12.04632 | 7891 ft | 248 kts | 121° |
| 2026-05-06 19:40 | 55.59645 | 12.07515 | 7538 ft | 247 kts | 91° |
| 2026-05-06 19:40 | 55.59976 | 12.10470 | 7195 ft | 246 kts | 70° |
| 2026-05-06 19:41 | 55.60557 | 12.13307 | 6873 ft | 245 kts | 68° |
| 2026-05-06 19:41 | 55.61258 | 12.16050 | 6558 ft | 244 kts | 63° |
| 2026-05-06 19:41 | 55.62037 | 12.18712 | 6246 ft | 243 kts | 62° |
| 2026-05-06 19:41 | 55.62782 | 12.21226 | 5949 ft | 242 kts | 62° |
| 2026-05-06 19:42 | 55.63453 | 12.23540 | 5681 ft | 241 kts | 63° |
| 2026-05-06 19:42 | 55.64192 | 12.26150 | 5386 ft | 240 kts | 63° |
| 2026-05-06 19:42 | 55.64927 | 12.28788 | 5088 ft | 239 kts | 63° |
| 2026-05-06 19:42 | 55.65656 | 12.31423 | 4792 ft | 238 kts | 64° |
| 2026-05-06 19:43 | 55.66380 | 12.34047 | 4501 ft | 237 kts | 64° |
| 2026-05-06 19:43 | 55.67100 | 12.36660 | 4207 ft | 236 kts | 64° |
| 2026-05-06 19:43 | 55.67812 | 12.39247 | 4026 ft | 231 kts | 64° |
| 2026-05-06 19:43 | 55.68530 | 12.41860 | 4001 ft | 236 kts | 64° |
| 2026-05-06 19:44 | 55.69246 | 12.44466 | 4012 ft | 235 kts | 64° |
| 2026-05-06 19:44 | 55.69962 | 12.47074 | 4004 ft | 235 kts | 64° |
| 2026-05-06 19:44 | 55.70677 | 12.49685 | 3976 ft | 236 kts | 64° |
| 2026-05-06 19:44 | 55.71395 | 12.52299 | 3849 ft | 235 kts | 63° |
| 2026-05-06 19:45 | 55.72127 | 12.54880 | 3727 ft | 234 kts | 63° |
| 2026-05-06 19:45 | 55.72869 | 12.57455 | 3602 ft | 234 kts | 63° |
| 2026-05-06 19:45 | 55.73609 | 12.60023 | 3475 ft | 233 kts | 63° |
| 2026-05-06 19:45 | 55.74347 | 12.62587 | 3353 ft | 233 kts | 61° |
| 2026-05-06 19:46 | 55.75265 | 12.64903 | 3217 ft | 232 kts | 47° |
| 2026-05-06 19:46 | 55.76458 | 12.66825 | 3104 ft | 232 kts | 40° |
| 2026-05-06 19:46 | 55.77679 | 12.68693 | 3015 ft | 231 kts | 40° |
| 2026-05-06 19:46 | 55.78890 | 12.70574 | 3009 ft | 231 kts | 41° |
| 2026-05-06 19:47 | 55.80100 | 12.72462 | 3006 ft | 231 kts | 41° |
| 2026-05-06 19:47 | 55.81181 | 12.74557 | 3007 ft | 231 kts | 62° |
| 2026-05-06 19:47 | 55.81549 | 12.77316 | 3008 ft | 232 kts | 94° |
| 2026-05-06 19:47 | 55.81046 | 12.79999 | 3009 ft | 232 kts | 123° |
| 2026-05-06 19:48 | 55.80137 | 12.82372 | 3006 ft | 232 kts | 125° |
| 2026-05-06 19:48 | 55.79219 | 12.84727 | 3006 ft | 232 kts | 125° |
| 2026-05-06 19:48 | 55.78112 | 12.86764 | 3008 ft | 231 kts | 150° |
| 2026-05-06 19:48 | 55.76584 | 12.87495 | 3007 ft | 230 kts | 183° |
| 2026-05-06 19:49 | 55.75024 | 12.86923 | 3002 ft | 230 kts | 202° |
| 2026-05-06 19:49 | 55.73807 | 12.85216 | 2982 ft | 220 kts | 231° |
| 2026-05-06 19:49 | 55.72844 | 12.83137 | 2726 ft | 216 kts | 229° |
| 2026-05-06 19:49 | 55.71822 | 12.81242 | 2427 ft | 213 kts | 224° |
| 2026-05-06 19:50 | 55.70775 | 12.79537 | 2186 ft | 192 kts | 222° |
| 2026-05-06 19:50 | 55.69823 | 12.78062 | 1909 ft | 172 kts | 222° |
| 2026-05-06 19:50 | 55.68976 | 12.76743 | 1708 ft | 151 kts | 222° |
| 2026-05-06 19:50 | 55.68200 | 12.75537 | 1504 ft | 149 kts | 222° |
| 2026-05-06 19:51 | 55.67430 | 12.74341 | 1303 ft | 147 kts | 222° |
| 2026-05-06 19:51 | 55.66663 | 12.73146 | 904 ft | 145 kts | 222° |
| 2026-05-06 19:51 | 55.65912 | 12.71973 | 633 ft | 144 kts | 222° |
| 2026-05-06 19:51 | 55.65158 | 12.70795 | 593 ft | 144 kts | 222° |
| 2026-05-06 19:52 | 55.64425 | 12.69651 | 592 ft | 143 kts | 222° |
| 2026-05-06 19:52 | 55.63695 | 12.68511 | 580 ft | 133 kts | 222° |
| 2026-05-06 19:52 | 55.63025 | 12.67469 | 258 ft | 133 kts | 222° |
| 2026-05-06 19:52 | 55.62342 | 12.66444 | 45 ft | 124 kts | 221° |
| 2026-05-06 19:53 | 55.61764 | 12.65561 | 19 ft | 74 kts | 221° |
| 2026-05-06 19:53 | 55.61610 | 12.65257 | 16 ft | 20 kts | 256° |
| 2026-05-06 19:53 | 55.61606 | 12.65170 | 17 ft | 7 kts | 271° |
| 2026-05-06 19:53 | 55.61608 | 12.65103 | 17 ft | 6 kts | 275° |
| 2026-05-06 19:54 | 55.61632 | 12.64989 | 16 ft | 14 kts | 298° |
| 2026-05-06 19:54 | 55.61658 | 12.64925 | 16 ft | 0 kts | 310° |
| 2026-05-06 19:54 | 55.61664 | 12.64912 | 17 ft | 4 kts | 310° |
| 2026-05-06 19:54 | 55.61707 | 12.64836 | 18 ft | 13 kts | 320° |
| 2026-05-06 19:55 | 55.61806 | 12.64781 | 18 ft | 18 kts | 357° |
| 2026-05-06 19:55 | 55.61928 | 12.64849 | 17 ft | 21 kts | 26° |
| 2026-05-06 19:55 | 55.62051 | 12.64988 | 22 ft | 22 kts | 36° |
| 2026-05-06 19:55 | 55.62122 | 12.65079 | 25 ft | 12 kts | 35° |
| 2026-05-06 19:56 | 55.62192 | 12.65158 | 25 ft | 10 kts | 32° |
| 2026-05-06 19:56 | 55.62274 | 12.65176 | 26 ft | 10 kts | 322° |
| 2026-05-06 19:56 | 55.62293 | 12.65045 | 23 ft | 16 kts | 284° |
| 2026-05-06 19:56 | 55.62353 | 12.64857 | 25 ft | 20 kts | 304° |
| 2026-05-06 19:57 | 55.62443 | 12.64623 | 25 ft | 25 kts | 304° |
| 2026-05-06 19:57 | 55.62547 | 12.64349 | 22 ft | 24 kts | 303° |
| 2026-05-06 19:57 | 55.62562 | 12.64310 | 23 ft | 4 kts | 304° |
| 2026-05-06 19:57 | 55.62587 | 12.64295 | 23 ft | 5 kts | 22° |
| 2026-05-06 19:58 | 55.62608 | 12.64354 | 22 ft | 8 kts | 66° |
| 2026-05-06 19:58 | 55.62627 | 12.64427 | 23 ft | 0 kts | 67° |